sensor_id;sensor_type;location;lat;lon;timestamp;P1;durP1;ratioP1;P2;durP2;ratioP2
40621;SDS011;26324;52.040;11.528;2023-09-08T00:00:26;4.93;;;2.97;;
40621;SDS011;26324;52.040;11.528;2023-09-08T00:02:54;5.53;;;2.78;;
40621;SDS011;26324;52.040;11.528;2023-09-08T00:05:21;6.25;;;3.15;;
40621;SDS011;26324;52.040;11.528;2023-09-08T00:07:48;4.20;;;2.63;;
40621;SDS011;26324;52.040;11.528;2023-09-08T00:10:16;4.50;;;2.60;;
40621;SDS011;26324;52.040;11.528;2023-09-08T00:12:43;5.05;;;2.90;;
40621;SDS011;26324;52.040;11.528;2023-09-08T00:15:10;6.28;;;3.28;;
40621;SDS011;26324;52.040;11.528;2023-09-08T00:17:38;6.60;;;3.40;;
40621;SDS011;26324;52.040;11.528;2023-09-08T00:20:06;6.50;;;3.15;;
40621;SDS011;26324;52.040;11.528;2023-09-08T00:22:37;6.75;;;3.15;;
40621;SDS011;26324;52.040;11.528;2023-09-08T00:25:05;6.35;;;2.55;;
40621;SDS011;26324;52.040;11.528;2023-09-08T00:27:33;6.00;;;2.85;;
40621;SDS011;26324;52.040;11.528;2023-09-08T00:30:00;5.80;;;3.03;;
40621;SDS011;26324;52.040;11.528;2023-09-08T00:32:29;4.90;;;2.80;;
40621;SDS011;26324;52.040;11.528;2023-09-08T00:34:56;4.32;;;3.13;;
40621;SDS011;26324;52.040;11.528;2023-09-08T00:37:24;5.07;;;2.58;;
40621;SDS011;26324;52.040;11.528;2023-09-08T00:39:51;7.65;;;3.50;;
40621;SDS011;26324;52.040;11.528;2023-09-08T00:42:18;4.97;;;2.90;;
40621;SDS011;26324;52.040;11.528;2023-09-08T00:44:46;5.60;;;3.10;;
40621;SDS011;26324;52.040;11.528;2023-09-08T00:47:14;5.72;;;2.83;;
40621;SDS011;26324;52.040;11.528;2023-09-08T00:49:41;5.78;;;2.95;;
40621;SDS011;26324;52.040;11.528;2023-09-08T00:52:09;5.85;;;3.03;;
40621;SDS011;26324;52.040;11.528;2023-09-08T00:54:36;6.10;;;3.05;;
40621;SDS011;26324;52.040;11.528;2023-09-08T00:57:04;7.07;;;3.30;;
40621;SDS011;26324;52.040;11.528;2023-09-08T00:59:32;5.82;;;3.50;;
40621;SDS011;26324;52.040;11.528;2023-09-08T01:02:02;5.28;;;2.85;;
40621;SDS011;26324;52.040;11.528;2023-09-08T01:04:30;5.60;;;3.35;;
40621;SDS011;26324;52.040;11.528;2023-09-08T01:07:00;4.65;;;3.20;;
40621;SDS011;26324;52.040;11.528;2023-09-08T01:09:28;5.20;;;3.30;;
40621;SDS011;26324;52.040;11.528;2023-09-08T01:11:57;4.53;;;3.08;;
40621;SDS011;26324;52.040;11.528;2023-09-08T01:14:29;4.95;;;3.20;;
40621;SDS011;26324;52.040;11.528;2023-09-08T01:16:56;5.10;;;2.88;;
40621;SDS011;26324;52.040;11.528;2023-09-08T01:19:23;4.88;;;2.97;;
40621;SDS011;26324;52.040;11.528;2023-09-08T01:27:31;6.10;;;3.45;;
40621;SDS011;26324;52.040;11.528;2023-09-08T01:30:02;4.80;;;3.03;;
40621;SDS011;26324;52.040;11.528;2023-09-08T01:32:31;5.35;;;3.10;;
40621;SDS011;26324;52.040;11.528;2023-09-08T01:35:01;6.53;;;3.28;;
40621;SDS011;26324;52.040;11.528;2023-09-08T01:37:29;5.18;;;3.30;;
40621;SDS011;26324;52.040;11.528;2023-09-08T01:39:56;6.60;;;3.85;;
40621;SDS011;26324;52.040;11.528;2023-09-08T01:42:23;7.63;;;2.83;;
40621;SDS011;26324;52.040;11.528;2023-09-08T01:44:51;5.78;;;3.20;;
40621;SDS011;26324;52.040;11.528;2023-09-08T01:47:18;5.10;;;3.35;;
40621;SDS011;26324;52.040;11.528;2023-09-08T01:49:45;5.80;;;3.25;;
40621;SDS011;26324;52.040;11.528;2023-09-08T01:52:13;6.35;;;3.47;;
40621;SDS011;26324;52.040;11.528;2023-09-08T01:54:40;5.80;;;3.35;;
40621;SDS011;26324;52.040;11.528;2023-09-08T01:57:08;6.57;;;3.50;;
40621;SDS011;26324;52.040;11.528;2023-09-08T01:59:35;7.88;;;3.20;;
40621;SDS011;26324;52.040;11.528;2023-09-08T02:02:04;4.47;;;3.35;;
40621;SDS011;26324;52.040;11.528;2023-09-08T02:04:31;5.28;;;3.22;;
40621;SDS011;26324;52.040;11.528;2023-09-08T02:06:59;4.57;;;3.22;;
40621;SDS011;26324;52.040;11.528;2023-09-08T02:09:34;5.55;;;3.92;;
40621;SDS011;26324;52.040;11.528;2023-09-08T02:12:03;6.10;;;3.47;;
40621;SDS011;26324;52.040;11.528;2023-09-08T02:14:31;5.53;;;3.50;;
40621;SDS011;26324;52.040;11.528;2023-09-08T02:16:58;6.95;;;3.58;;
40621;SDS011;26324;52.040;11.528;2023-09-08T02:19:26;8.75;;;3.80;;
40621;SDS011;26324;52.040;11.528;2023-09-08T02:21:54;5.05;;;3.25;;
40621;SDS011;26324;52.040;11.528;2023-09-08T02:24:21;6.82;;;3.88;;
40621;SDS011;26324;52.040;11.528;2023-09-08T02:26:49;6.88;;;3.80;;
40621;SDS011;26324;52.040;11.528;2023-09-08T02:29:17;7.57;;;3.60;;
40621;SDS011;26324;52.040;11.528;2023-09-08T02:31:45;6.15;;;3.55;;
40621;SDS011;26324;52.040;11.528;2023-09-08T02:34:13;6.93;;;3.78;;
40621;SDS011;26324;52.040;11.528;2023-09-08T02:36:40;7.32;;;3.65;;
40621;SDS011;26324;52.040;11.528;2023-09-08T02:39:08;6.10;;;3.60;;
40621;SDS011;26324;52.040;11.528;2023-09-08T02:41:37;7.30;;;4.22;;
40621;SDS011;26324;52.040;11.528;2023-09-08T02:44:05;4.78;;;3.05;;
40621;SDS011;26324;52.040;11.528;2023-09-08T02:46:33;6.60;;;3.55;;
40621;SDS011;26324;52.040;11.528;2023-09-08T02:49:00;5.97;;;3.40;;
40621;SDS011;26324;52.040;11.528;2023-09-08T02:51:28;5.45;;;3.05;;
40621;SDS011;26324;52.040;11.528;2023-09-08T02:53:55;5.53;;;3.47;;
40621;SDS011;26324;52.040;11.528;2023-09-08T02:56:22;8.82;;;3.65;;
40621;SDS011;26324;52.040;11.528;2023-09-08T02:58:52;5.57;;;3.33;;
40621;SDS011;26324;52.040;11.528;2023-09-08T03:01:19;5.28;;;3.10;;
40621;SDS011;26324;52.040;11.528;2023-09-08T03:03:47;6.50;;;3.53;;
40621;SDS011;26324;52.040;11.528;2023-09-08T03:06:18;5.20;;;3.38;;
40621;SDS011;26324;52.040;11.528;2023-09-08T03:08:48;5.95;;;3.20;;
40621;SDS011;26324;52.040;11.528;2023-09-08T03:11:15;8.65;;;3.72;;
40621;SDS011;26324;52.040;11.528;2023-09-08T03:13:42;5.90;;;3.05;;
40621;SDS011;26324;52.040;11.528;2023-09-08T03:16:11;5.00;;;3.13;;
40621;SDS011;26324;52.040;11.528;2023-09-08T03:18:38;5.20;;;2.95;;
40621;SDS011;26324;52.040;11.528;2023-09-08T03:21:06;6.07;;;3.50;;
40621;SDS011;26324;52.040;11.528;2023-09-08T03:23:38;5.47;;;3.20;;
40621;SDS011;26324;52.040;11.528;2023-09-08T03:28:34;6.00;;;3.40;;
40621;SDS011;26324;52.040;11.528;2023-09-08T03:31:03;7.28;;;2.85;;
40621;SDS011;26324;52.040;11.528;2023-09-08T03:33:33;5.70;;;3.20;;
40621;SDS011;26324;52.040;11.528;2023-09-08T03:36:02;6.80;;;3.60;;
40621;SDS011;26324;52.040;11.528;2023-09-08T03:38:30;7.50;;;3.65;;
40621;SDS011;26324;52.040;11.528;2023-09-08T03:40:57;6.20;;;3.45;;
40621;SDS011;26324;52.040;11.528;2023-09-08T03:43:25;5.93;;;3.50;;
40621;SDS011;26324;52.040;11.528;2023-09-08T03:45:52;5.35;;;3.10;;
40621;SDS011;26324;52.040;11.528;2023-09-08T03:48:21;5.72;;;3.58;;
40621;SDS011;26324;52.040;11.528;2023-09-08T03:50:49;7.10;;;3.50;;
40621;SDS011;26324;52.040;11.528;2023-09-08T03:53:16;6.03;;;3.35;;
40621;SDS011;26324;52.040;11.528;2023-09-08T03:55:43;5.32;;;3.53;;
40621;SDS011;26324;52.040;11.528;2023-09-08T03:58:11;6.07;;;3.42;;
40621;SDS011;26324;52.040;11.528;2023-09-08T04:00:38;8.20;;;3.97;;
40621;SDS011;26324;52.040;11.528;2023-09-08T04:03:06;7.38;;;3.00;;
40621;SDS011;26324;52.040;11.528;2023-09-08T04:05:33;5.45;;;3.65;;
40621;SDS011;26324;52.040;11.528;2023-09-08T04:08:01;7.30;;;3.63;;
40621;SDS011;26324;52.040;11.528;2023-09-08T04:10:29;7.90;;;3.55;;
40621;SDS011;26324;52.040;11.528;2023-09-08T04:12:56;8.02;;;3.90;;
40621;SDS011;26324;52.040;11.528;2023-09-08T04:15:23;6.80;;;3.92;;
40621;SDS011;26324;52.040;11.528;2023-09-08T04:17:51;8.00;;;4.18;;
40621;SDS011;26324;52.040;11.528;2023-09-08T04:20:18;7.15;;;4.30;;
40621;SDS011;26324;52.040;11.528;2023-09-08T04:22:46;5.28;;;3.75;;
40621;SDS011;26324;52.040;11.528;2023-09-08T04:25:14;8.18;;;4.65;;
40621;SDS011;26324;52.040;11.528;2023-09-08T04:27:42;5.90;;;3.67;;
40621;SDS011;26324;52.040;11.528;2023-09-08T04:30:11;7.63;;;3.63;;
40621;SDS011;26324;52.040;11.528;2023-09-08T04:32:39;5.45;;;3.13;;
40621;SDS011;26324;52.040;11.528;2023-09-08T04:35:07;6.47;;;4.00;;
40621;SDS011;26324;52.040;11.528;2023-09-08T04:37:35;6.00;;;3.85;;
40621;SDS011;26324;52.040;11.528;2023-09-08T04:40:04;8.25;;;4.25;;
40621;SDS011;26324;52.040;11.528;2023-09-08T04:42:32;7.47;;;3.88;;
40621;SDS011;26324;52.040;11.528;2023-09-08T04:47:28;7.55;;;4.13;;
40621;SDS011;26324;52.040;11.528;2023-09-08T04:49:56;6.68;;;4.20;;
40621;SDS011;26324;52.040;11.528;2023-09-08T04:52:25;7.07;;;3.95;;
40621;SDS011;26324;52.040;11.528;2023-09-08T04:54:52;6.75;;;3.85;;
40621;SDS011;26324;52.040;11.528;2023-09-08T04:57:19;5.53;;;3.90;;
40621;SDS011;26324;52.040;11.528;2023-09-08T04:59:53;7.93;;;4.55;;
40621;SDS011;26324;52.040;11.528;2023-09-08T05:02:21;9.35;;;4.28;;
40621;SDS011;26324;52.040;11.528;2023-09-08T05:04:48;6.60;;;3.50;;
40621;SDS011;26324;52.040;11.528;2023-09-08T05:07:16;8.68;;;4.13;;
40621;SDS011;26324;52.040;11.528;2023-09-08T05:09:46;6.20;;;3.88;;
40621;SDS011;26324;52.040;11.528;2023-09-08T05:12:14;7.07;;;3.85;;
40621;SDS011;26324;52.040;11.528;2023-09-08T05:14:41;8.43;;;3.92;;
40621;SDS011;26324;52.040;11.528;2023-09-08T05:17:09;6.35;;;3.92;;
40621;SDS011;26324;52.040;11.528;2023-09-08T05:19:36;8.48;;;4.03;;
40621;SDS011;26324;52.040;11.528;2023-09-08T05:22:04;7.85;;;3.55;;
40621;SDS011;26324;52.040;11.528;2023-09-08T05:24:33;8.65;;;4.63;;
40621;SDS011;26324;52.040;11.528;2023-09-08T05:27:01;4.35;;;2.65;;
40621;SDS011;26324;52.040;11.528;2023-09-08T05:29:28;5.43;;;3.72;;
40621;SDS011;26324;52.040;11.528;2023-09-08T05:31:56;7.40;;;4.03;;
40621;SDS011;26324;52.040;11.528;2023-09-08T05:34:23;6.75;;;3.95;;
40621;SDS011;26324;52.040;11.528;2023-09-08T05:36:51;7.32;;;4.10;;
40621;SDS011;26324;52.040;11.528;2023-09-08T05:39:18;8.00;;;4.32;;
40621;SDS011;26324;52.040;11.528;2023-09-08T05:41:46;10.27;;;5.05;;
40621;SDS011;26324;52.040;11.528;2023-09-08T05:44:14;7.03;;;4.30;;
40621;SDS011;26324;52.040;11.528;2023-09-08T05:46:41;7.13;;;4.75;;
40621;SDS011;26324;52.040;11.528;2023-09-08T05:49:09;7.50;;;4.60;;
40621;SDS011;26324;52.040;11.528;2023-09-08T05:51:37;8.30;;;4.72;;
40621;SDS011;26324;52.040;11.528;2023-09-08T05:54:05;8.18;;;5.07;;
40621;SDS011;26324;52.040;11.528;2023-09-08T05:56:33;7.25;;;4.95;;
40621;SDS011;26324;52.040;11.528;2023-09-08T05:59:00;7.68;;;5.03;;
40621;SDS011;26324;52.040;11.528;2023-09-08T06:01:28;8.38;;;5.20;;
40621;SDS011;26324;52.040;11.528;2023-09-08T06:03:58;7.20;;;4.50;;
40621;SDS011;26324;52.040;11.528;2023-09-08T06:06:29;10.18;;;4.68;;
40621;SDS011;26324;52.040;11.528;2023-09-08T06:08:57;8.95;;;5.10;;
40621;SDS011;26324;52.040;11.528;2023-09-08T06:11:26;8.73;;;4.97;;
40621;SDS011;26324;52.040;11.528;2023-09-08T06:13:53;9.23;;;4.82;;
40621;SDS011;26324;52.040;11.528;2023-09-08T06:16:32;9.80;;;5.18;;
40621;SDS011;26324;52.040;11.528;2023-09-08T06:18:59;8.43;;;4.95;;
40621;SDS011;26324;52.040;11.528;2023-09-08T06:21:30;9.18;;;4.93;;
40621;SDS011;26324;52.040;11.528;2023-09-08T06:23:58;7.47;;;4.68;;
40621;SDS011;26324;52.040;11.528;2023-09-08T06:26:26;8.07;;;5.18;;
40621;SDS011;26324;52.040;11.528;2023-09-08T06:28:54;8.32;;;5.35;;
40621;SDS011;26324;52.040;11.528;2023-09-08T06:31:21;9.40;;;5.22;;
40621;SDS011;26324;52.040;11.528;2023-09-08T06:33:49;7.18;;;4.88;;
40621;SDS011;26324;52.040;11.528;2023-09-08T06:36:20;9.70;;;5.43;;
40621;SDS011;26324;52.040;11.528;2023-09-08T06:38:47;8.80;;;5.32;;
40621;SDS011;26324;52.040;11.528;2023-09-08T06:41:15;7.03;;;5.10;;
40621;SDS011;26324;52.040;11.528;2023-09-08T06:43:43;8.65;;;5.10;;
40621;SDS011;26324;52.040;11.528;2023-09-08T06:46:20;7.75;;;5.18;;
40621;SDS011;26324;52.040;11.528;2023-09-08T06:48:48;7.78;;;4.85;;
40621;SDS011;26324;52.040;11.528;2023-09-08T06:51:15;7.10;;;4.80;;
40621;SDS011;26324;52.040;11.528;2023-09-08T06:53:43;8.05;;;5.00;;
40621;SDS011;26324;52.040;11.528;2023-09-08T06:56:11;7.10;;;4.50;;
40621;SDS011;26324;52.040;11.528;2023-09-08T06:58:39;11.05;;;5.47;;
40621;SDS011;26324;52.040;11.528;2023-09-08T07:01:06;8.63;;;5.35;;
40621;SDS011;26324;52.040;11.528;2023-09-08T07:03:35;9.15;;;4.70;;
40621;SDS011;26324;52.040;11.528;2023-09-08T07:06:05;10.18;;;5.15;;
40621;SDS011;26324;52.040;11.528;2023-09-08T07:08:33;9.98;;;5.25;;
40621;SDS011;26324;52.040;11.528;2023-09-08T07:11:01;8.88;;;6.07;;
40621;SDS011;26324;52.040;11.528;2023-09-08T07:13:29;10.07;;;5.85;;
40621;SDS011;26324;52.040;11.528;2023-09-08T07:15:57;8.07;;;5.38;;
40621;SDS011;26324;52.040;11.528;2023-09-08T07:18:25;9.05;;;5.70;;
40621;SDS011;26324;52.040;11.528;2023-09-08T07:20:53;8.27;;;5.95;;
40621;SDS011;26324;52.040;11.528;2023-09-08T07:23:21;9.27;;;5.30;;
40621;SDS011;26324;52.040;11.528;2023-09-08T07:25:48;7.88;;;4.85;;
40621;SDS011;26324;52.040;11.528;2023-09-08T07:28:19;6.32;;;4.03;;
40621;SDS011;26324;52.040;11.528;2023-09-08T07:30:50;8.43;;;5.07;;
40621;SDS011;26324;52.040;11.528;2023-09-08T07:33:18;7.90;;;5.15;;
40621;SDS011;26324;52.040;11.528;2023-09-08T07:35:47;6.20;;;4.65;;
40621;SDS011;26324;52.040;11.528;2023-09-08T07:38:14;8.80;;;5.72;;
40621;SDS011;26324;52.040;11.528;2023-09-08T07:40:41;10.75;;;5.05;;
40621;SDS011;26324;52.040;11.528;2023-09-08T07:43:09;9.52;;;5.88;;
40621;SDS011;26324;52.040;11.528;2023-09-08T07:45:37;7.72;;;5.43;;
40621;SDS011;26324;52.040;11.528;2023-09-08T07:48:04;8.82;;;5.47;;
40621;SDS011;26324;52.040;11.528;2023-09-08T07:50:32;9.18;;;5.88;;
40621;SDS011;26324;52.040;11.528;2023-09-08T07:52:59;7.80;;;5.53;;
40621;SDS011;26324;52.040;11.528;2023-09-08T07:55:28;6.93;;;4.82;;
40621;SDS011;26324;52.040;11.528;2023-09-08T07:57:55;7.68;;;4.97;;
40621;SDS011;26324;52.040;11.528;2023-09-08T08:00:24;7.53;;;4.72;;
40621;SDS011;26324;52.040;11.528;2023-09-08T08:02:53;8.93;;;4.85;;
40621;SDS011;26324;52.040;11.528;2023-09-08T08:05:22;6.43;;;5.13;;
40621;SDS011;26324;52.040;11.528;2023-09-08T08:07:49;10.88;;;5.55;;
40621;SDS011;26324;52.040;11.528;2023-09-08T08:10:17;8.80;;;5.30;;
40621;SDS011;26324;52.040;11.528;2023-09-08T08:12:46;6.60;;;4.70;;
40621;SDS011;26324;52.040;11.528;2023-09-08T08:15:13;10.05;;;5.82;;
40621;SDS011;26324;52.040;11.528;2023-09-08T08:17:41;8.23;;;5.47;;
40621;SDS011;26324;52.040;11.528;2023-09-08T08:20:09;6.80;;;4.55;;
40621;SDS011;26324;52.040;11.528;2023-09-08T08:22:44;8.13;;;5.00;;
40621;SDS011;26324;52.040;11.528;2023-09-08T08:25:12;9.13;;;5.80;;
40621;SDS011;26324;52.040;11.528;2023-09-08T08:27:40;13.13;;;5.05;;
40621;SDS011;26324;52.040;11.528;2023-09-08T08:30:08;6.75;;;4.40;;
40621;SDS011;26324;52.040;11.528;2023-09-08T08:32:36;7.88;;;4.43;;
40621;SDS011;26324;52.040;11.528;2023-09-08T08:35:03;7.65;;;4.93;;
40621;SDS011;26324;52.040;11.528;2023-09-08T08:37:34;10.88;;;5.03;;
40621;SDS011;26324;52.040;11.528;2023-09-08T08:40:01;7.00;;;4.70;;
40621;SDS011;26324;52.040;11.528;2023-09-08T08:42:31;6.70;;;4.50;;
40621;SDS011;26324;52.040;11.528;2023-09-08T08:45:00;6.28;;;4.10;;
40621;SDS011;26324;52.040;11.528;2023-09-08T08:47:28;5.55;;;3.80;;
40621;SDS011;26324;52.040;11.528;2023-09-08T08:49:56;5.18;;;3.95;;
40621;SDS011;26324;52.040;11.528;2023-09-08T08:52:28;8.23;;;4.75;;
40621;SDS011;26324;52.040;11.528;2023-09-08T08:54:56;7.30;;;4.25;;
40621;SDS011;26324;52.040;11.528;2023-09-08T08:57:23;6.20;;;3.95;;
40621;SDS011;26324;52.040;11.528;2023-09-08T08:59:54;6.75;;;3.95;;
40621;SDS011;26324;52.040;11.528;2023-09-08T09:02:22;5.45;;;4.28;;
40621;SDS011;26324;52.040;11.528;2023-09-08T09:04:54;5.30;;;3.92;;
40621;SDS011;26324;52.040;11.528;2023-09-08T09:07:21;5.40;;;3.90;;
40621;SDS011;26324;52.040;11.528;2023-09-08T09:09:49;7.00;;;4.20;;
40621;SDS011;26324;52.040;11.528;2023-09-08T09:12:17;5.97;;;4.05;;
40621;SDS011;26324;52.040;11.528;2023-09-08T09:14:50;5.93;;;3.70;;
40621;SDS011;26324;52.040;11.528;2023-09-08T09:17:20;5.63;;;4.03;;
40621;SDS011;26324;52.040;11.528;2023-09-08T09:19:48;5.80;;;3.30;;
40621;SDS011;26324;52.040;11.528;2023-09-08T09:22:19;5.82;;;3.67;;
40621;SDS011;26324;52.040;11.528;2023-09-08T09:24:47;5.07;;;3.80;;
40621;SDS011;26324;52.040;11.528;2023-09-08T09:27:15;4.80;;;4.00;;
40621;SDS011;26324;52.040;11.528;2023-09-08T09:29:46;4.63;;;3.70;;
40621;SDS011;26324;52.040;11.528;2023-09-08T09:32:15;6.22;;;3.75;;
40621;SDS011;26324;52.040;11.528;2023-09-08T09:34:53;4.78;;;3.80;;
40621;SDS011;26324;52.040;11.528;2023-09-08T09:37:21;6.05;;;3.70;;
40621;SDS011;26324;52.040;11.528;2023-09-08T09:39:53;5.35;;;3.85;;
40621;SDS011;26324;52.040;11.528;2023-09-08T09:42:21;6.38;;;3.40;;
40621;SDS011;26324;52.040;11.528;2023-09-08T09:44:49;6.20;;;3.45;;
40621;SDS011;26324;52.040;11.528;2023-09-08T09:47:20;8.35;;;4.00;;
40621;SDS011;26324;52.040;11.528;2023-09-08T09:49:48;6.00;;;3.60;;
40621;SDS011;26324;52.040;11.528;2023-09-08T09:52:23;5.53;;;3.67;;
40621;SDS011;26324;52.040;11.528;2023-09-08T09:54:53;5.97;;;3.67;;
40621;SDS011;26324;52.040;11.528;2023-09-08T09:57:22;6.78;;;3.78;;
40621;SDS011;26324;52.040;11.528;2023-09-08T09:59:50;5.40;;;3.83;;
40621;SDS011;26324;52.040;11.528;2023-09-08T10:02:20;6.68;;;3.90;;
40621;SDS011;26324;52.040;11.528;2023-09-08T10:04:50;6.22;;;3.53;;
40621;SDS011;26324;52.040;11.528;2023-09-08T10:07:18;4.75;;;3.33;;
40621;SDS011;26324;52.040;11.528;2023-09-08T10:09:46;5.10;;;3.50;;
40621;SDS011;26324;52.040;11.528;2023-09-08T10:12:14;6.50;;;3.83;;
40621;SDS011;26324;52.040;11.528;2023-09-08T10:14:43;4.45;;;3.30;;
40621;SDS011;26324;52.040;11.528;2023-09-08T10:17:15;5.75;;;3.28;;
40621;SDS011;26324;52.040;11.528;2023-09-08T10:19:45;4.53;;;3.75;;
40621;SDS011;26324;52.040;11.528;2023-09-08T10:22:23;5.10;;;3.67;;
40621;SDS011;26324;52.040;11.528;2023-09-08T10:24:56;4.72;;;3.88;;
40621;SDS011;26324;52.040;11.528;2023-09-08T10:27:26;4.72;;;3.88;;
40621;SDS011;26324;52.040;11.528;2023-09-08T10:29:55;5.85;;;3.85;;
40621;SDS011;26324;52.040;11.528;2023-09-08T10:32:23;5.85;;;3.72;;
40621;SDS011;26324;52.040;11.528;2023-09-08T10:34:51;5.80;;;3.40;;
40621;SDS011;26324;52.040;11.528;2023-09-08T10:39:48;5.22;;;3.70;;
40621;SDS011;26324;52.040;11.528;2023-09-08T10:47:19;4.43;;;3.45;;
40621;SDS011;26324;52.040;11.528;2023-09-08T10:49:51;3.75;;;3.13;;
40621;SDS011;26324;52.040;11.528;2023-09-08T10:52:24;4.72;;;3.05;;
40621;SDS011;26324;52.040;11.528;2023-09-08T10:54:53;5.20;;;3.15;;
40621;SDS011;26324;52.040;11.528;2023-09-08T10:57:22;7.35;;;3.20;;
40621;SDS011;26324;52.040;11.528;2023-09-08T10:59:54;4.38;;;2.97;;
40621;SDS011;26324;52.040;11.528;2023-09-08T11:02:36;4.63;;;3.13;;
40621;SDS011;26324;52.040;11.528;2023-09-08T11:05:13;5.45;;;3.50;;
40621;SDS011;26324;52.040;11.528;2023-09-08T11:07:43;4.88;;;3.13;;
40621;SDS011;26324;52.040;11.528;2023-09-08T11:10:12;4.55;;;3.10;;
40621;SDS011;26324;52.040;11.528;2023-09-08T11:12:40;5.35;;;2.85;;
40621;SDS011;26324;52.040;11.528;2023-09-08T11:15:07;3.60;;;3.28;;
40621;SDS011;26324;52.040;11.528;2023-09-08T11:17:36;5.20;;;3.13;;
40621;SDS011;26324;52.040;11.528;2023-09-08T11:20:09;5.57;;;3.80;;
40621;SDS011;26324;52.040;11.528;2023-09-08T11:22:39;6.15;;;2.88;;
40621;SDS011;26324;52.040;11.528;2023-09-08T11:25:08;4.20;;;3.35;;
40621;SDS011;26324;52.040;11.528;2023-09-08T11:27:38;3.80;;;3.20;;
40621;SDS011;26324;52.040;11.528;2023-09-08T11:30:08;4.97;;;3.47;;
40621;SDS011;26324;52.040;11.528;2023-09-08T11:32:36;4.95;;;3.30;;
40621;SDS011;26324;52.040;11.528;2023-09-08T11:35:04;3.83;;;3.42;;
40621;SDS011;26324;52.040;11.528;2023-09-08T11:37:35;5.20;;;3.85;;
40621;SDS011;26324;52.040;11.528;2023-09-08T11:40:05;4.13;;;2.97;;
40621;SDS011;26324;52.040;11.528;2023-09-08T11:42:37;6.00;;;3.45;;
40621;SDS011;26324;52.040;11.528;2023-09-08T11:45:14;5.75;;;3.60;;
40621;SDS011;26324;52.040;11.528;2023-09-08T11:47:48;6.75;;;3.88;;
40621;SDS011;26324;52.040;11.528;2023-09-08T11:50:20;4.22;;;3.25;;
40621;SDS011;26324;52.040;11.528;2023-09-08T11:52:48;4.20;;;3.45;;
40621;SDS011;26324;52.040;11.528;2023-09-08T11:55:17;7.78;;;3.42;;
40621;SDS011;26324;52.040;11.528;2023-09-08T11:57:46;5.03;;;3.40;;
40621;SDS011;26324;52.040;11.528;2023-09-08T12:00:18;5.60;;;3.70;;
40621;SDS011;26324;52.040;11.528;2023-09-08T12:02:47;5.88;;;4.18;;
40621;SDS011;26324;52.040;11.528;2023-09-08T12:07:57;4.50;;;3.55;;
40621;SDS011;26324;52.040;11.528;2023-09-08T12:10:25;7.15;;;3.90;;
40621;SDS011;26324;52.040;11.528;2023-09-08T12:12:53;5.60;;;3.45;;
40621;SDS011;26324;52.040;11.528;2023-09-08T12:18:02;4.20;;;3.33;;
40621;SDS011;26324;52.040;11.528;2023-09-08T12:20:31;4.70;;;3.33;;
40621;SDS011;26324;52.040;11.528;2023-09-08T12:25:28;4.43;;;3.70;;
40621;SDS011;26324;52.040;11.528;2023-09-08T12:27:59;5.30;;;3.50;;
40621;SDS011;26324;52.040;11.528;2023-09-08T12:30:27;3.97;;;3.33;;
40621;SDS011;26324;52.040;11.528;2023-09-08T12:33:00;5.40;;;3.60;;
40621;SDS011;26324;52.040;11.528;2023-09-08T12:35:29;8.30;;;3.47;;
40621;SDS011;26324;52.040;11.528;2023-09-08T12:37:59;5.22;;;3.47;;
40621;SDS011;26324;52.040;11.528;2023-09-08T12:40:28;4.63;;;3.15;;
40621;SDS011;26324;52.040;11.528;2023-09-08T12:42:56;6.35;;;3.25;;
40621;SDS011;26324;52.040;11.528;2023-09-08T12:45:48;5.80;;;3.65;;
40621;SDS011;26324;52.040;11.528;2023-09-08T12:48:15;3.75;;;3.08;;
40621;SDS011;26324;52.040;11.528;2023-09-08T12:50:42;4.68;;;3.40;;
40621;SDS011;26324;52.040;11.528;2023-09-08T12:53:10;5.32;;;3.20;;
40621;SDS011;26324;52.040;11.528;2023-09-08T12:55:37;4.47;;;3.00;;
40621;SDS011;26324;52.040;11.528;2023-09-08T12:58:05;5.03;;;3.63;;
40621;SDS011;26324;52.040;11.528;2023-09-08T13:00:32;3.33;;;3.03;;
40621;SDS011;26324;52.040;11.528;2023-09-08T13:03:01;3.20;;;2.88;;
40621;SDS011;26324;52.040;11.528;2023-09-08T13:05:29;3.90;;;3.42;;
40621;SDS011;26324;52.040;11.528;2023-09-08T13:07:59;4.43;;;2.78;;
40621;SDS011;26324;52.040;11.528;2023-09-08T13:10:26;3.80;;;2.78;;
40621;SDS011;26324;52.040;11.528;2023-09-08T13:12:54;4.22;;;3.35;;
40621;SDS011;26324;52.040;11.528;2023-09-08T13:15:22;4.18;;;3.15;;
40621;SDS011;26324;52.040;11.528;2023-09-08T13:17:50;3.83;;;3.38;;
40621;SDS011;26324;52.040;11.528;2023-09-08T13:20:18;4.10;;;3.15;;
40621;SDS011;26324;52.040;11.528;2023-09-08T13:22:46;4.22;;;3.65;;
40621;SDS011;26324;52.040;11.528;2023-09-08T13:25:15;4.90;;;3.15;;
40621;SDS011;26324;52.040;11.528;2023-09-08T13:27:42;3.63;;;3.30;;
40621;SDS011;26324;52.040;11.528;2023-09-08T13:30:13;3.85;;;3.45;;
40621;SDS011;26324;52.040;11.528;2023-09-08T13:32:42;5.30;;;3.60;;
40621;SDS011;26324;52.040;11.528;2023-09-08T13:35:11;4.07;;;3.28;;
40621;SDS011;26324;52.040;11.528;2023-09-08T13:37:39;5.15;;;3.45;;
40621;SDS011;26324;52.040;11.528;2023-09-08T13:40:06;4.53;;;3.70;;
40621;SDS011;26324;52.040;11.528;2023-09-08T13:42:36;3.92;;;3.00;;
40621;SDS011;26324;52.040;11.528;2023-09-08T13:45:04;4.07;;;3.67;;
40621;SDS011;26324;52.040;11.528;2023-09-08T13:47:32;5.40;;;4.07;;
40621;SDS011;26324;52.040;11.528;2023-09-08T13:50:01;3.75;;;3.42;;
40621;SDS011;26324;52.040;11.528;2023-09-08T13:52:32;6.97;;;3.60;;
40621;SDS011;26324;52.040;11.528;2023-09-08T13:55:07;6.03;;;4.10;;
40621;SDS011;26324;52.040;11.528;2023-09-08T13:57:37;5.00;;;4.25;;
40621;SDS011;26324;52.040;11.528;2023-09-08T14:00:07;5.68;;;4.55;;
40621;SDS011;26324;52.040;11.528;2023-09-08T14:02:42;5.15;;;4.85;;
40621;SDS011;26324;52.040;11.528;2023-09-08T14:05:17;4.95;;;4.65;;
40621;SDS011;26324;52.040;11.528;2023-09-08T14:07:53;5.25;;;4.85;;
40621;SDS011;26324;52.040;11.528;2023-09-08T14:10:32;5.88;;;5.43;;
40621;SDS011;26324;52.040;11.528;2023-09-08T14:13:02;5.80;;;5.30;;
40621;SDS011;26324;52.040;11.528;2023-09-08T14:15:30;5.72;;;5.22;;
40621;SDS011;26324;52.040;11.528;2023-09-08T14:17:58;5.03;;;4.63;;
40621;SDS011;26324;52.040;11.528;2023-09-08T14:20:25;6.10;;;5.65;;
40621;SDS011;26324;52.040;11.528;2023-09-08T14:22:52;5.70;;;5.30;;
40621;SDS011;26324;52.040;11.528;2023-09-08T14:25:20;6.40;;;5.07;;
40621;SDS011;26324;52.040;11.528;2023-09-08T14:27:47;6.65;;;6.10;;
40621;SDS011;26324;52.040;11.528;2023-09-08T14:30:15;5.97;;;5.57;;
40621;SDS011;26324;52.040;11.528;2023-09-08T14:32:42;5.28;;;4.90;;
40621;SDS011;26324;52.040;11.528;2023-09-08T14:35:10;7.13;;;6.63;;
40621;SDS011;26324;52.040;11.528;2023-09-08T14:40:04;6.03;;;5.63;;
40621;SDS011;26324;52.040;11.528;2023-09-08T14:42:33;6.55;;;5.95;;
40621;SDS011;26324;52.040;11.528;2023-09-08T14:47:27;5.93;;;5.45;;
40621;SDS011;26324;52.040;11.528;2023-09-08T14:49:55;5.93;;;5.53;;
40621;SDS011;26324;52.040;11.528;2023-09-08T14:52:23;6.80;;;6.43;;
40621;SDS011;26324;52.040;11.528;2023-09-08T14:54:51;5.85;;;5.43;;
40621;SDS011;26324;52.040;11.528;2023-09-08T14:57:18;6.35;;;5.82;;
40621;SDS011;26324;52.040;11.528;2023-09-08T15:02:13;6.20;;;5.82;;
40621;SDS011;26324;52.040;11.528;2023-09-08T15:04:40;6.38;;;5.97;;
40621;SDS011;26324;52.040;11.528;2023-09-08T15:07:08;5.60;;;5.30;;
40621;SDS011;26324;52.040;11.528;2023-09-08T15:09:35;6.10;;;5.70;;
40621;SDS011;26324;52.040;11.528;2023-09-08T15:12:03;6.03;;;5.53;;
40621;SDS011;26324;52.040;11.528;2023-09-08T15:14:30;6.10;;;5.70;;